Lyndon, Kentucky
Current Conditions -  °F | °C
As of 1:53 AM on Wednesday 22 Oct 2014 (Local Time) from KLOU Reporting Station
Clear Clear  
Wind Chill: 46°   Ceiling: Unl
Heat Index: 48°   Visibility: 10mi
Dew Point: 41°   Wind: 5mph
Humidity: 77%   Direction: 30°NNE
Pressure: 30.19"   Gusts: NA
Location:  38.3046°N, 85.5795°W
Report Text: KLOU 220553Z AUTO 03004KT 10SM CLR 09/05 A3019 RMK AO2 SLP222 T00890050 10133 20089 51008
Loading
Personal Weather Stations






























Interactive Weather Map
Tropical Storm Tracking
New forecast layout! Learn more

10-Day Weather Forecast

Advertisements
Track Severe Weather on mobile